Deridder, Louisiana
Current Conditions -  °F | °C
As of 9:55 AM on Saturday 20 Dec 2014 (Local Time) from KDRI Reporting Station
Overcast Overcast  
Wind Chill: 46°   Ceiling: 800
Heat Index: 49°   Visibility: 10mi
Dew Point: 46°   Wind: 7mph
Humidity: 90%   Direction: 10°N
Pressure: 30.23"   Gusts: NA
Location:  30.85°N, 93.29°W
Report Text: KDRI 201555Z AUTO 01006KT 10SM OVC008 09/08 A3023 RMK AO2 T00930077
Loading
Personal Weather Stations






























Interactive Weather Map New forecast layout! Learn more

10-Day Weather Forecast

Advertisements
Track Severe Weather on mobile